Time;durP1;ratioP1;P1;durP2;ratioP2;P2;SDS_P1;SDS_P2;PMS_P1;PMS_P2;Temp;Humidity;BMP_temperature;BMP_pressure;BME280_temperature;BME280_humidity;BME280_pressure;Samples;Min_cycle;Max_cycle;Signal;HPM_P1;HPM_P2
2022/04/15 00:01:03;;;;;;;9.77;6.70;;;8.40;99.90;;;;;;4895365;29;20305;-59
2022/04/15 00:03:31;;;;;;;8.73;7.80;;;8.40;99.90;;;;;;4894586;29;20302;-59
2022/04/15 00:06:00;;;;;;;10.07;7.17;;;8.40;99.90;;;;;;4895618;29;20305;-59
2022/04/15 00:08:28;;;;;;;11.07;7.90;;;8.40;99.90;;;;;;4896529;29;20248;-59
2022/04/15 00:10:57;;;;;;;10.57;7.07;;;8.40;99.90;;;;;;4898823;29;20274;-59
2022/04/15 00:13:32;;;;;;;11.50;7.47;;;8.40;99.90;;;;;;4895294;29;20300;-60
2022/04/15 00:16:03;;;;;;;9.33;6.87;;;8.40;99.90;;;;;;4895524;29;20608;-59
2022/04/15 00:18:32;;;;;;;9.63;7.00;;;8.50;99.90;;;;;;4895119;29;20268;-59
2022/04/15 00:21:01;;;;;;;10.23;7.03;;;8.50;99.90;;;;;;4902235;29;20328;-59
2022/04/15 00:23:30;;;;;;;9.20;7.00;;;8.50;99.90;;;;;;4896213;29;20241;-59
2022/04/15 00:25:59;;;;;;;9.73;7.70;;;8.50;99.90;;;;;;4895417;29;20252;-59
2022/04/15 00:28:27;;;;;;;9.17;7.30;;;8.50;99.90;;;;;;4896431;29;20740;-59
2022/04/15 00:30:55;;;;;;;11.10;7.53;;;8.50;99.90;;;;;;4898243;29;20285;-59
2022/04/15 00:33:25;;;;;;;9.30;7.33;;;8.50;99.90;;;;;;4895018;29;20293;-59
2022/04/15 00:35:53;;;;;;;10.80;7.47;;;8.50;99.90;;;;;;4895310;29;20249;-59
2022/04/15 00:38:21;;;;;;;10.23;7.53;;;8.50;99.90;;;;;;4895241;29;20281;-60
2022/04/15 00:40:50;;;;;;;11.00;7.67;;;8.50;99.90;;;;;;4895486;29;20245;-59
2022/04/15 00:43:18;;;;;;;13.67;7.93;;;8.40;99.90;;;;;;4895383;29;20230;-59
2022/04/15 00:45:47;;;;;;;12.67;7.60;;;8.50;99.90;;;;;;4895145;29;20249;-59
2022/04/15 00:48:19;;;;;;;16.17;8.60;;;8.50;99.90;;;;;;4896937;29;20233;-59
2022/04/15 00:50:49;;;;;;;13.10;9.20;;;8.50;99.90;;;;;;4895312;29;20709;-59
2022/04/15 00:53:21;;;;;;;13.10;9.57;;;8.50;99.90;;;;;;4897822;29;20237;-59
2022/04/15 00:55:53;;;;;;;11.63;8.60;;;8.50;99.90;;;;;;4895149;29;20245;-59
2022/04/15 00:58:24;;;;;;;15.63;10.00;;;8.50;99.90;;;;;;4895093;29;20320;-59
2022/04/15 01:00:53;;;;;;;13.30;9.33;;;8.40;99.90;;;;;;4894711;29;20249;-58
2022/04/15 01:03:22;;;;;;;16.50;9.77;;;8.40;99.90;;;;;;4898270;29;20242;-59
2022/04/15 01:05:57;;;;;;;12.67;9.13;;;8.40;99.90;;;;;;4898622;29;20245;-59
2022/04/15 01:08:28;;;;;;;15.20;10.13;;;8.40;99.90;;;;;;4896802;29;20583;-59
2022/04/15 01:10:58;;;;;;;12.33;9.87;;;8.40;99.90;;;;;;4898571;29;20284;-59
2022/04/15 01:13:27;;;;;;;13.50;9.30;;;8.40;99.90;;;;;;4898308;29;20297;-59
2022/04/15 01:15:57;;;;;;;12.73;9.23;;;8.40;99.90;;;;;;4901318;29;20241;-59
2022/04/15 01:18:25;;;;;;;10.27;8.37;;;8.40;99.90;;;;;;4898356;29;20237;-58
2022/04/15 01:20:54;;;;;;;9.90;8.27;;;8.40;99.90;;;;;;4899270;29;20697;-59
2022/04/15 01:23:24;;;;;;;8.43;7.37;;;8.30;99.90;;;;;;4900063;29;20245;-59
2022/04/15 01:25:52;;;;;;;9.87;8.30;;;8.40;99.90;;;;;;4901343;29;20251;-59
2022/04/15 01:28:22;;;;;;;10.30;8.13;;;8.40;99.90;;;;;;4898349;29;20245;-59
2022/04/15 01:30:50;;;;;;;10.17;8.30;;;8.40;99.90;;;;;;4899141;29;20611;-60
2022/04/15 01:33:19;;;;;;;11.20;7.97;;;8.40;99.90;;;;;;4897879;29;20320;-59
2022/04/15 01:35:50;;;;;;;9.77;7.97;;;8.40;99.90;;;;;;4898196;29;20249;-59
2022/04/15 01:38:19;;;;;;;11.40;8.13;;;8.40;99.90;;;;;;4898140;29;20281;-58
2022/04/15 01:40:49;;;;;;;11.33;7.43;;;8.40;99.90;;;;;;4900932;29;20257;-59
2022/04/15 01:43:17;;;;;;;9.40;7.57;;;8.40;99.90;;;;;;4897727;29;20241;-59
2022/04/15 01:45:45;;;;;;;11.53;8.13;;;8.40;99.90;;;;;;4897630;29;20241;-59
2022/04/15 01:48:13;;;;;;;9.93;8.33;;;8.40;99.90;;;;;;4899806;29;20324;-59
2022/04/15 01:50:41;;;;;;;10.30;8.23;;;8.40;99.90;;;;;;4897572;29;20264;-59
2022/04/15 01:53:10;;;;;;;10.60;8.33;;;8.40;99.90;;;;;;4901370;29;20244;-59
2022/04/15 01:55:38;;;;;;;9.30;8.17;;;8.30;99.90;;;;;;4885219;29;20248;-59
2022/04/15 01:58:07;;;;;;;13.20;8.57;;;8.30;99.90;;;;;;4897618;29;20265;-59
2022/04/15 02:00:35;;;;;;;11.93;9.00;;;8.30;99.90;;;;;;4895939;29;20251;-59
2022/04/15 02:03:04;;;;;;;12.23;8.63;;;8.30;99.90;;;;;;4897559;29;20241;-60
2022/04/15 02:05:32;;;;;;;11.73;8.90;;;8.30;99.90;;;;;;4897018;29;20297;-59
2022/04/15 02:08:00;;;;;;;12.43;9.20;;;8.30;99.90;;;;;;4899465;29;20245;-59
2022/04/15 02:10:28;;;;;;;9.97;8.20;;;8.30;99.90;;;;;;4900238;29;20712;-59
2022/04/15 02:12:57;;;;;;;12.10;8.93;;;8.30;99.90;;;;;;4897307;29;20238;-59
2022/04/15 02:15:26;;;;;;;11.37;9.43;;;8.30;99.90;;;;;;4897289;29;20237;-59
2022/04/15 02:17:55;;;;;;;10.63;8.80;;;8.30;99.90;;;;;;4897160;29;20329;-59
2022/04/15 02:20:23;;;;;;;10.47;8.57;;;8.30;99.90;;;;;;4903443;29;20723;-59
2022/04/15 02:22:54;;;;;;;11.37;8.73;;;8.20;99.90;;;;;;4901001;29;20252;-59
2022/04/15 02:25:22;;;;;;;12.60;9.47;;;8.20;99.90;;;;;;4897266;29;20746;-59
2022/04/15 02:27:50;;;;;;;12.73;8.80;;;8.30;99.90;;;;;;4899102;29;20253;-59
2022/04/15 02:30:19;;;;;;;10.63;8.70;;;8.20;99.90;;;;;;4899972;29;20267;-59
2022/04/15 02:32:49;;;;;;;11.27;7.70;;;8.20;99.90;;;;;;4896559;29;21016;-59
2022/04/15 02:35:17;;;;;;;10.40;8.00;;;8.30;99.90;;;;;;4897038;29;20244;-59
2022/04/15 02:37:45;;;;;;;9.87;7.97;;;8.20;99.90;;;;;;4896829;29;20277;-59
2022/04/15 02:40:14;;;;;;;11.17;8.40;;;8.20;99.90;;;;;;4899735;29;20244;-59
2022/04/15 02:42:42;;;;;;;12.20;8.80;;;8.20;99.90;;;;;;4896569;29;22586;-59
2022/04/15 02:45:10;;;;;;;9.40;8.23;;;8.20;99.90;;;;;;4896936;29;20239;-59
2022/04/15 02:47:40;;;;;;;10.53;9.17;;;8.20;99.90;;;;;;4890842;29;20241;-59
2022/04/15 02:50:10;;;;;;;11.30;8.87;;;8.20;99.90;;;;;;4897600;29;20250;-59
2022/04/15 02:52:38;;;;;;;12.87;9.93;;;8.20;99.90;;;;;;4895888;29;20238;-59
2022/04/15 02:55:07;;;;;;;12.80;10.80;;;8.10;99.90;;;;;;4896754;29;20328;-59
2022/04/15 02:57:35;;;;;;;15.23;11.23;;;8.10;99.90;;;;;;4896199;29;20237;-59
2022/04/15 03:00:05;;;;;;;12.83;11.50;;;8.10;99.90;;;;;;4896330;29;20252;-59
2022/04/15 03:02:33;;;;;;;14.73;12.30;;;8.10;99.90;;;;;;4896199;29;20280;-59
2022/04/15 03:05:03;;;;;;;14.80;11.97;;;8.10;99.90;;;;;;4896406;29;20277;-58
2022/04/15 03:07:33;;;;;;;15.57;13.37;;;8.10;99.90;;;;;;4897834;29;20248;-59
2022/04/15 03:10:01;;;;;;;15.47;12.73;;;8.10;99.90;;;;;;4898014;29;20261;-60
2022/04/15 03:12:29;;;;;;;15.50;13.40;;;8.10;99.90;;;;;;4896754;29;20241;-59
2022/04/15 03:14:57;;;;;;;15.53;13.00;;;8.00;99.90;;;;;;4896477;29;20710;-59
2022/04/15 03:17:25;;;;;;;15.87;13.37;;;8.10;99.90;;;;;;4896104;29;20243;-59
2022/04/15 03:19:53;;;;;;;16.03;12.40;;;8.10;99.90;;;;;;4901781;29;20717;-59
2022/04/15 03:22:21;;;;;;;17.30;12.47;;;8.10;99.90;;;;;;4901924;29;20261;-60
2022/04/15 03:24:52;;;;;;;17.70;13.30;;;8.10;99.90;;;;;;4895710;29;20245;-59
2022/04/15 03:27:20;;;;;;;18.23;13.53;;;8.10;99.90;;;;;;4897885;29;20636;-59
2022/04/15 03:29:48;;;;;;;18.10;13.83;;;8.10;99.90;;;;;;4895870;29;20237;-59
2022/04/15 03:32:17;;;;;;;17.73;13.27;;;8.10;99.90;;;;;;4893070;29;20273;-59
2022/04/15 03:34:45;;;;;;;17.23;13.73;;;8.10;99.90;;;;;;4895985;29;20241;-59
2022/04/15 03:37:13;;;;;;;16.53;13.87;;;8.10;99.90;;;;;;4898898;29;20249;-59
2022/04/15 03:39:41;;;;;;;19.23;13.23;;;8.10;99.90;;;;;;4895783;29;20246;-59
2022/04/15 03:42:11;;;;;;;16.77;12.90;;;8.20;99.90;;;;;;4895411;29;20309;-59
2022/04/15 03:44:39;;;;;;;18.87;13.50;;;8.10;99.90;;;;;;4895681;29;20244;-59
2022/04/15 03:47:07;;;;;;;18.93;13.20;;;8.10;99.90;;;;;;4895447;29;20297;-59
2022/04/15 03:49:36;;;;;;;18.40;12.97;;;8.10;99.90;;;;;;4895616;29;20259;-60
2022/04/15 03:52:04;;;;;;;19.73;12.97;;;8.10;99.90;;;;;;4902950;29;20255;-59
2022/04/15 03:54:32;;;;;;;18.63;13.13;;;8.10;99.90;;;;;;4895593;29;20249;-59
2022/04/15 03:57:01;;;;;;;17.03;13.20;;;8.10;99.90;;;;;;4895633;29;20625;-59
2022/04/15 03:59:30;;;;;;;21.40;13.83;;;8.10;99.90;;;;;;4895224;29;20239;-59
2022/04/15 04:01:58;;;;;;;20.83;13.40;;;8.10;99.90;;;;;;4895386;29;20256;-59
2022/04/15 04:04:26;;;;;;;24.87;14.73;;;8.10;99.90;;;;;;4895565;29;20241;-60
2022/04/15 04:06:54;;;;;;;22.47;14.50;;;8.10;99.90;;;;;;4897258;29;20605;-59
2022/04/15 04:09:22;;;;;;;22.23;15.20;;;8.10;99.90;;;;;;4896091;29;20245;-59
2022/04/15 04:11:50;;;;;;;24.50;15.53;;;8.10;99.90;;;;;;4898577;29;20252;-59
2022/04/15 04:14:19;;;;;;;24.90;17.53;;;8.10;99.90;;;;;;4895756;29;20269;-59
2022/04/15 04:16:49;;;;;;;27.67;17.93;;;8.10;99.90;;;;;;4895258;29;20252;-59
2022/04/15 04:19:17;;;;;;;28.47;18.20;;;8.10;99.90;;;;;;4898257;29;20293;-59
2022/04/15 04:21:45;;;;;;;29.30;18.80;;;8.10;99.90;;;;;;4899372;29;20248;-60
2022/04/15 04:24:13;;;;;;;28.40;19.07;;;8.10;99.90;;;;;;4895388;29;20250;-59
2022/04/15 04:26:41;;;;;;;33.77;19.47;;;8.10;99.90;;;;;;4897075;29;20289;-59
2022/04/15 04:29:09;;;;;;;32.93;20.90;;;8.10;99.90;;;;;;4895470;29;20249;-59
2022/04/15 04:31:39;;;;;;;31.80;19.20;;;8.10;99.90;;;;;;4890596;29;20245;-60
2022/04/15 04:34:09;;;;;;;34.83;20.50;;;8.10;99.90;;;;;;4895045;29;20319;-59
2022/04/15 04:36:37;;;;;;;34.03;19.23;;;8.10;99.90;;;;;;4895322;29;20240;-59
2022/04/15 04:39:09;;;;;;;33.50;18.47;;;8.10;99.90;;;;;;4898930;29;20247;-59
2022/04/15 04:41:39;;;;;;;28.23;17.13;;;8.10;99.90;;;;;;4901411;29;20271;-59
2022/04/15 04:44:08;;;;;;;29.63;16.67;;;8.10;99.90;;;;;;4899102;29;20244;-59
2022/04/15 04:46:36;;;;;;;28.83;17.80;;;8.10;99.90;;;;;;4900468;29;20240;-59
2022/04/15 04:49:05;;;;;;;32.60;17.63;;;8.10;99.90;;;;;;4898986;29;20315;-60
2022/04/15 04:51:34;;;;;;;26.03;16.67;;;8.10;99.90;;;;;;4901959;29;20256;-59
2022/04/15 04:54:02;;;;;;;28.00;16.27;;;8.20;99.90;;;;;;4898934;29;20252;-59
2022/04/15 04:56:30;;;;;;;29.50;14.80;;;8.10;99.90;;;;;;4898371;29;20672;-60
2022/04/15 04:58:59;;;;;;;26.93;15.00;;;8.10;99.90;;;;;;4898733;29;20257;-59
2022/04/15 05:01:27;;;;;;;24.20;14.47;;;8.20;99.90;;;;;;4898131;29;20272;-59
2022/04/15 05:03:55;;;;;;;26.97;15.07;;;8.20;99.90;;;;;;4898551;29;20595;-59
2022/04/15 05:06:23;;;;;;;27.27;16.23;;;8.20;99.90;;;;;;4900323;29;20241;-60
2022/04/15 05:08:53;;;;;;;28.23;15.77;;;8.20;99.90;;;;;;4898107;29;20249;-59
2022/04/15 05:11:21;;;;;;;27.30;15.17;;;8.20;99.90;;;;;;4901419;29;20241;-59
2022/04/15 05:13:50;;;;;;;24.93;15.23;;;8.20;99.90;;;;;;4898651;29;20241;-59
2022/04/15 05:16:18;;;;;;;27.73;15.33;;;8.20;99.90;;;;;;4898268;29;20814;-59
2022/04/15 05:18:46;;;;;;;26.67;15.40;;;8.20;99.90;;;;;;4898787;29;20289;-59
2022/04/15 05:21:14;;;;;;;28.20;16.10;;;8.20;99.90;;;;;;4900896;29;20324;-59
2022/04/15 05:23:43;;;;;;;27.50;15.43;;;8.10;99.90;;;;;;4898115;29;20267;-59
2022/04/15 05:26:12;;;;;;;31.97;15.63;;;8.10;99.90;;;;;;4904368;29;20713;-59
2022/04/15 05:28:41;;;;;;;25.70;16.00;;;8.10;99.90;;;;;;4898025;29;20237;-59
2022/04/15 05:31:10;;;;;;;25.03;14.17;;;8.10;99.90;;;;;;4901071;29;20601;-60
2022/04/15 05:33:38;;;;;;;26.33;14.87;;;8.10;99.90;;;;;;4890260;29;20265;-59
2022/04/15 05:36:07;;;;;;;24.47;14.13;;;8.10;99.90;;;;;;4897957;29;20241;-59
2022/04/15 05:38:35;;;;;;;22.67;13.67;;;8.10;99.90;;;;;;4897751;29;20245;-59
2022/04/15 05:41:03;;;;;;;19.43;13.03;;;8.10;99.90;;;;;;4897765;29;20324;-59
2022/04/15 05:43:33;;;;;;;20.63;12.77;;;8.00;99.90;;;;;;4897827;29;20237;-59
2022/04/15 05:46:01;;;;;;;21.10;13.07;;;8.00;99.90;;;;;;4897314;29;20348;-59
2022/04/15 05:48:29;;;;;;;20.10;12.73;;;8.00;99.90;;;;;;4897018;29;20244;-58
2022/04/15 05:50:58;;;;;;;24.10;13.93;;;8.00;99.90;;;;;;4898877;29;20320;-58
2022/04/15 05:53:26;;;;;;;19.70;13.50;;;8.00;99.90;;;;;;4897575;29;20245;-60
2022/04/15 05:55:54;;;;;;;21.47;13.07;;;8.00;99.90;;;;;;4897545;29;20249;-59
2022/04/15 05:58:25;;;;;;;22.60;14.03;;;8.00;99.90;;;;;;4897397;29;20245;-59
2022/04/15 06:00:55;;;;;;;17.97;13.47;;;8.00;99.90;;;;;;4901611;29;20244;-59
2022/04/15 06:03:23;;;;;;;19.73;12.40;;;7.90;99.90;;;;;;4897721;29;20237;-59
2022/04/15 06:05:51;;;;;;;19.37;12.70;;;7.90;99.90;;;;;;4897427;29;20237;-59
2022/04/15 06:08:19;;;;;;;15.10;11.70;;;7.90;99.90;;;;;;4897635;29;20693;-59
2022/04/15 06:10:48;;;;;;;21.03;13.40;;;7.90;99.90;;;;;;4897209;29;20365;-59
2022/04/15 06:13:22;;;;;;;20.87;13.20;;;7.90;99.90;;;;;;4897548;29;20233;-60
2022/04/15 06:15:56;;;;;;;18.40;12.90;;;7.90;99.90;;;;;;4900656;29;20724;-58
2022/04/15 06:18:25;;;;;;;23.70;13.97;;;7.90;99.90;;;;;;4897083;29;20264;-58
2022/04/15 06:20:53;;;;;;;20.53;14.67;;;7.90;99.90;;;;;;4901697;29;20748;-58
2022/04/15 06:23:22;;;;;;;20.17;13.67;;;7.90;99.90;;;;;;4897418;29;20274;-59
2022/04/15 06:25:50;;;;;;;21.20;13.07;;;7.90;99.90;;;;;;4897324;29;20243;-59
2022/04/15 06:28:21;;;;;;;21.40;12.90;;;7.90;99.90;;;;;;4897696;29;20245;-59
2022/04/15 06:30:49;;;;;;;20.50;13.47;;;7.90;99.90;;;;;;4897214;29;20276;-59
2022/04/15 06:33:20;;;;;;;21.07;13.13;;;8.00;99.90;;;;;;4897103;29;20245;-58
2022/04/15 06:35:48;;;;;;;19.13;13.20;;;8.00;99.90;;;;;;4896956;29;20244;-59
2022/04/15 06:38:16;;;;;;;23.20;14.70;;;8.00;99.90;;;;;;4897083;29;20293;-59
2022/04/15 06:40:44;;;;;;;24.07;14.60;;;8.00;99.90;;;;;;4899703;29;20233;-59
2022/04/15 06:43:14;;;;;;;23.20;15.73;;;8.00;99.90;;;;;;4897112;29;20253;-59
2022/04/15 06:45:42;;;;;;;23.57;15.83;;;8.00;99.90;;;;;;4899550;29;20241;-59
2022/04/15 06:48:10;;;;;;;26.93;15.80;;;8.00;99.90;;;;;;4898576;29;20337;-58
2022/04/15 06:50:40;;;;;;;23.20;16.33;;;8.00;99.90;;;;;;4896280;29;20229;-59
2022/04/15 06:53:08;;;;;;;22.77;15.87;;;8.00;99.90;;;;;;4896746;29;20256;-59
2022/04/15 06:55:36;;;;;;;24.90;16.80;;;8.00;99.90;;;;;;4896203;29;20236;-59
2022/04/15 06:58:04;;;;;;;26.40;17.17;;;8.10;99.90;;;;;;4896682;29;20292;-59
2022/04/15 07:00:33;;;;;;;24.50;16.87;;;8.00;99.90;;;;;;4899195;29;20269;-59
2022/04/15 07:03:02;;;;;;;25.13;17.10;;;8.10;99.90;;;;;;4896357;29;20271;-59
2022/04/15 07:05:30;;;;;;;29.20;18.53;;;8.10;99.90;;;;;;4896242;29;20326;-59
2022/04/15 07:08:08;;;;;;;25.73;18.10;;;8.10;99.90;;;;;;4896519;29;20251;-59
2022/04/15 07:10:37;;;;;;;25.00;18.00;;;8.20;99.90;;;;;;4896108;29;20744;-59
2022/04/15 07:13:06;;;;;;;27.30;18.57;;;8.20;99.90;;;;;;4896384;29;20605;-58
2022/04/15 07:15:34;;;;;;;26.90;19.70;;;8.10;99.90;;;;;;4896138;29;20269;-59
2022/04/15 07:18:04;;;;;;;26.23;19.40;;;8.10;99.90;;;;;;4896193;29;20318;-59
2022/04/15 07:20:33;;;;;;;27.67;19.67;;;8.10;99.90;;;;;;4899516;29;20297;-59
2022/04/15 07:23:03;;;;;;;30.50;20.93;;;8.10;99.90;;;;;;4896129;29;20239;-59
2022/04/15 07:25:34;;;;;;;26.97;20.50;;;8.10;99.90;;;;;;4895906;29;20308;-59
2022/04/15 07:28:02;;;;;;;31.67;20.47;;;8.10;99.90;;;;;;4896138;29;20241;-59
2022/04/15 07:30:32;;;;;;;29.90;20.80;;;8.20;99.90;;;;;;4896556;29;20320;-59
2022/04/15 07:33:02;;;;;;;28.20;21.13;;;8.20;99.90;;;;;;4895639;29;20269;-59
2022/04/15 07:35:30;;;;;;;27.43;20.73;;;8.20;99.90;;;;;;4895708;29;20728;-59
2022/04/15 07:37:58;;;;;;;29.00;20.77;;;8.30;99.90;;;;;;4895886;29;20257;-59
2022/04/15 07:40:29;;;;;;;28.03;20.13;;;8.40;99.90;;;;;;4895671;29;20241;-58
2022/04/15 07:42:59;;;;;;;26.80;20.33;;;8.40;99.90;;;;;;4895988;29;20269;-58
2022/04/15 07:45:27;;;;;;;28.70;19.43;;;8.30;99.90;;;;;;4895508;29;20610;-60
2022/04/15 07:47:55;;;;;;;24.70;18.07;;;8.40;99.90;;;;;;4895465;29;20235;-59
2022/04/15 07:50:25;;;;;;;25.60;18.27;;;8.40;99.90;;;;;;4896025;29;20724;-59
2022/04/15 07:52:56;;;;;;;25.47;18.70;;;8.40;99.90;;;;;;4896067;29;20634;-59
2022/04/15 07:55:24;;;;;;;25.27;19.03;;;8.30;99.90;;;;;;4895468;29;20233;-58
2022/04/15 07:57:52;;;;;;;26.93;19.63;;;8.30;99.90;;;;;;4895924;29;20248;-59
2022/04/15 08:00:22;;;;;;;26.90;19.10;;;8.40;99.90;;;;;;4895597;29;20728;-58
2022/04/15 08:02:51;;;;;;;25.67;18.47;;;8.40;99.90;;;;;;4895594;29;20575;-59
2022/04/15 08:05:19;;;;;;;25.27;19.60;;;8.40;99.90;;;;;;4895720;29;20249;-59
2022/04/15 08:07:47;;;;;;;31.20;19.87;;;8.40;99.90;;;;;;4895485;29;20236;-59
2022/04/15 08:10:16;;;;;;;27.57;19.70;;;8.40;99.90;;;;;;4895343;29;20241;-58
2022/04/15 08:12:44;;;;;;;27.37;19.67;;;8.50;99.90;;;;;;4895140;29;21842;-59
2022/04/15 08:15:12;;;;;;;29.07;20.17;;;8.50;99.90;;;;;;4895585;29;20324;-59
2022/04/15 08:17:43;;;;;;;29.07;20.13;;;8.50;99.90;;;;;;4895514;29;20646;-59
2022/04/15 08:20:11;;;;;;;28.17;20.83;;;8.60;99.90;;;;;;4898879;29;20729;-59
2022/04/15 08:22:39;;;;;;;30.77;20.63;;;8.70;99.90;;;;;;4895225;29;20241;-59
2022/04/15 08:25:08;;;;;;;28.30;20.83;;;8.70;99.90;;;;;;4897891;29;20611;-59
2022/04/15 08:27:36;;;;;;;28.43;21.33;;;8.90;99.90;;;;;;4897018;29;20240;-59
2022/04/15 08:30:05;;;;;;;28.40;20.43;;;8.90;99.90;;;;;;4895411;29;20246;-59
2022/04/15 08:32:34;;;;;;;27.53;20.20;;;8.90;99.90;;;;;;4894757;29;20268;-59
2022/04/15 08:35:12;;;;;;;29.47;21.23;;;8.90;99.90;;;;;;4895304;29;20246;-59
2022/04/15 08:37:41;;;;;;;29.97;22.57;;;8.80;99.90;;;;;;4895181;29;20257;-59
2022/04/15 08:40:11;;;;;;;29.73;21.47;;;8.80;99.90;;;;;;4895377;29;20241;-59
2022/04/15 08:42:40;;;;;;;27.63;20.83;;;8.80;99.90;;;;;;4887439;29;20741;-59
2022/04/15 08:45:09;;;;;;;28.20;20.43;;;8.80;99.90;;;;;;4895301;29;20734;-59
2022/04/15 08:47:38;;;;;;;27.60;21.17;;;8.70;99.90;;;;;;4894927;29;20237;-59
2022/04/15 08:50:11;;;;;;;29.23;21.13;;;8.80;99.90;;;;;;4896262;29;20237;-59
2022/04/15 08:52:39;;;;;;;29.00;21.53;;;8.70;99.90;;;;;;4894898;29;20252;-59
2022/04/15 08:55:08;;;;;;;26.80;20.57;;;8.70;99.90;;;;;;4895088;29;20234;-59
2022/04/15 08:57:36;;;;;;;29.50;21.83;;;8.70;99.90;;;;;;4894713;29;20325;-59
2022/04/15 09:00:05;;;;;;;30.33;22.17;;;8.80;99.90;;;;;;4897847;29;20248;-59
2022/04/15 09:02:35;;;;;;;27.13;21.97;;;8.80;99.90;;;;;;4895294;29;20648;-59
2022/04/15 09:05:12;;;;;;;29.40;20.90;;;8.80;99.90;;;;;;4895009;29;20248;-59
2022/04/15 09:07:41;;;;;;;28.17;22.07;;;8.90;99.90;;;;;;4889282;29;20324;-58
2022/04/15 09:10:10;;;;;;;29.40;21.67;;;8.90;99.90;;;;;;4894988;29;20337;-59
2022/04/15 09:12:40;;;;;;;27.47;21.43;;;8.90;99.90;;;;;;4894787;29;20237;-59
2022/04/15 09:15:13;;;;;;;28.97;21.70;;;9.00;99.90;;;;;;4894985;29;20964;-59
2022/04/15 09:17:46;;;;;;;25.00;20.70;;;9.10;99.90;;;;;;4887397;29;20237;-59
2022/04/15 09:20:17;;;;;;;26.77;20.40;;;9.10;99.90;;;;;;4895679;29;20242;-60
2022/04/15 09:22:45;;;;;;;28.30;21.07;;;9.20;99.90;;;;;;4895269;29;20655;-59
2022/04/15 09:25:14;;;;;;;28.83;20.50;;;9.20;99.90;;;;;;4898213;29;20773;-59
2022/04/15 09:27:43;;;;;;;27.40;20.27;;;9.20;99.90;;;;;;4897994;29;20237;-59
2022/04/15 09:30:11;;;;;;;24.57;19.03;;;9.20;99.90;;;;;;4899195;29;20234;-60
2022/04/15 09:32:41;;;;;;;27.10;21.60;;;9.20;99.90;;;;;;4897771;29;20750;-59
2022/04/15 09:35:18;;;;;;;26.70;21.20;;;9.20;99.90;;;;;;4898112;29;20242;-59
2022/04/15 09:37:46;;;;;;;26.70;20.17;;;9.20;99.90;;;;;;4891167;29;20244;-59
2022/04/15 09:40:16;;;;;;;25.63;20.10;;;9.30;99.90;;;;;;4900925;29;23293;-59
2022/04/15 09:42:46;;;;;;;28.30;21.33;;;9.30;99.90;;;;;;4897695;29;20245;-59
2022/04/15 09:45:16;;;;;;;26.30;20.07;;;9.40;99.90;;;;;;4897976;29;20241;-59
2022/04/15 09:47:50;;;;;;;25.23;19.97;;;9.40;99.90;;;;;;4897829;29;20328;-58
2022/04/15 09:50:27;;;;;;;26.20;20.97;;;9.50;99.90;;;;;;4901583;29;20241;-59
2022/04/15 09:53:06;;;;;;;26.70;20.90;;;9.50;99.90;;;;;;4897638;29;20276;-59
2022/04/15 09:55:36;;;;;;;26.17;21.77;;;9.50;99.90;;;;;;4900280;29;20241;-59
2022/04/15 09:58:09;;;;;;;28.93;23.13;;;9.60;99.90;;;;;;4896128;29;20237;-59
2022/04/15 10:00:38;;;;;;;28.07;22.07;;;9.60;99.90;;;;;;4897498;29;20328;-59
2022/04/15 10:03:08;;;;;;;27.57;21.53;;;9.60;99.90;;;;;;4897599;29;20244;-59
2022/04/15 10:05:39;;;;;;;30.60;21.50;;;9.70;99.90;;;;;;4897381;29;20650;-59
2022/04/15 10:08:08;;;;;;;25.60;21.63;;;9.70;99.90;;;;;;4897461;29;20271;-59
2022/04/15 10:10:36;;;;;;;26.83;22.00;;;9.70;99.90;;;;;;4897109;29;20756;-59
2022/04/15 10:13:06;;;;;;;30.77;24.10;;;9.70;99.90;;;;;;4897397;29;20786;-59
2022/04/15 10:15:37;;;;;;;30.07;23.37;;;9.70;99.90;;;;;;4897206;29;20245;-58
2022/04/15 10:18:05;;;;;;;28.77;23.53;;;9.60;99.90;;;;;;4897450;29;20240;-59
2022/04/15 10:20:34;;;;;;;30.80;23.90;;;9.60;99.90;;;;;;4897903;29;20762;-59
2022/04/15 10:23:06;;;;;;;29.60;23.50;;;9.70;99.90;;;;;;4897355;29;20245;-59
2022/04/15 10:25:36;;;;;;;31.17;24.77;;;9.70;99.90;;;;;;4897148;29;20238;-59
2022/04/15 10:28:08;;;;;;;31.27;24.77;;;9.80;99.90;;;;;;4899246;29;20241;-59
2022/04/15 10:30:38;;;;;;;30.87;23.63;;;9.80;99.90;;;;;;4896893;29;20643;-59
2022/04/15 10:33:06;;;;;;;28.77;23.97;;;9.80;99.90;;;;;;4896901;29;20242;-59
2022/04/15 10:35:36;;;;;;;29.17;23.30;;;9.80;99.90;;;;;;4896766;29;20257;-60
2022/04/15 10:38:11;;;;;;;31.40;23.33;;;9.90;99.90;;;;;;4896981;29;20238;-59
2022/04/15 10:40:44;;;;;;;30.23;23.20;;;10.00;99.90;;;;;;4899786;29;20710;-58
2022/04/15 10:43:21;;;;;;;33.50;23.20;;;10.00;99.90;;;;;;4896816;29;20246;-59
2022/04/15 10:45:51;;;;;;;27.27;22.63;;;9.90;99.90;;;;;;4899784;29;20743;-59
2022/04/15 10:48:30;;;;;;;30.37;22.93;;;9.90;99.90;;;;;;4898718;29;20278;-58
2022/04/15 10:51:13;;;;;;;28.47;22.87;;;9.90;99.90;;;;;;4896429;29;20314;-60
2022/04/15 10:53:44;;;;;;;29.23;23.53;;;9.90;99.90;;;;;;4896744;29;20261;-58
2022/04/15 10:56:13;;;;;;;29.97;24.03;;;9.90;99.90;;;;;;4896680;29;20294;-60
2022/04/15 11:01:35;;;;;;;32.13;24.67;;;10.10;99.90;;;;;;4895630;29;20284;-58
2022/04/15 11:04:05;;;;;;;33.23;25.00;;;10.20;99.90;;;;;;4896523;29;20245;-59
2022/04/15 11:06:33;;;;;;;27.93;21.93;;;10.20;99.90;;;;;;4896074;29;20635;-59
2022/04/15 11:09:16;;;;;;;27.60;21.67;;;10.30;99.90;;;;;;4896644;29;20234;-59
2022/04/15 11:11:45;;;;;;;26.80;21.77;;;10.30;99.90;;;;;;4896202;29;20651;-59
2022/04/15 11:14:16;;;;;;;26.33;21.97;;;10.50;99.90;;;;;;4896375;29;20238;-59
2022/04/15 11:16:46;;;;;;;25.90;20.87;;;10.60;99.90;;;;;;4895614;29;20252;-59
2022/04/15 11:19:22;;;;;;;24.47;20.50;;;10.60;99.90;;;;;;4896212;29;20243;-60
2022/04/15 11:21:53;;;;;;;22.07;17.13;;;10.60;99.90;;;;;;4897244;29;20245;-59
2022/04/15 11:24:25;;;;;;;19.10;15.80;;;10.60;99.90;;;;;;4896405;29;20247;-58
2022/04/15 11:27:04;;;;;;;21.17;15.90;;;10.50;99.90;;;;;;4896078;29;20249;-59
2022/04/15 11:29:34;;;;;;;19.97;15.23;;;10.60;99.90;;;;;;4896549;29;20243;-59
2022/04/15 11:32:06;;;;;;;18.00;15.03;;;10.60;99.90;;;;;;4895842;29;20251;-59
2022/04/15 11:34:35;;;;;;;19.20;14.37;;;10.60;99.90;;;;;;4895842;29;20239;-59
2022/04/15 11:37:06;;;;;;;18.37;14.97;;;10.60;99.90;;;;;;4895875;29;20250;-59
2022/04/15 11:39:36;;;;;;;20.30;15.13;;;10.50;99.90;;;;;;4895905;29;20275;-59
2022/04/15 11:42:12;;;;;;;19.43;16.30;;;10.50;99.90;;;;;;4898746;29;20302;-59
2022/04/15 11:44:42;;;;;;;17.60;15.17;;;10.50;99.90;;;;;;4895834;29;20727;-59
2022/04/15 11:47:25;;;;;;;20.53;15.00;;;10.50;99.90;;;;;;4895369;29;20242;-59
2022/04/15 11:49:53;;;;;;;19.33;15.50;;;10.50;99.90;;;;;;4896005;29;20243;-59
2022/04/15 11:52:26;;;;;;;18.57;14.97;;;10.50;99.90;;;;;;4895804;29;20324;-58
2022/04/15 11:54:58;;;;;;;21.27;15.10;;;10.50;99.90;;;;;;4895935;29;20239;-59
2022/04/15 11:57:29;;;;;;;18.97;14.73;;;10.50;99.90;;;;;;4894930;29;20382;-60
2022/04/15 11:59:57;;;;;;;19.17;14.80;;;10.50;99.90;;;;;;4897446;29;20242;-59
2022/04/15 12:02:26;;;;;;;17.07;14.13;;;10.50;99.90;;;;;;4897544;29;20236;-58
2022/04/15 12:04:55;;;;;;;17.53;14.27;;;10.60;99.90;;;;;;4896210;29;20239;-59
2022/04/15 12:07:24;;;;;;;16.30;13.33;;;10.70;99.90;;;;;;4899263;29;20250;-59
2022/04/15 12:09:54;;;;;;;17.13;13.70;;;10.80;99.90;;;;;;4895996;29;20246;-58
2022/04/15 12:12:24;;;;;;;17.87;13.27;;;11.00;99.90;;;;;;4897586;29;20659;-59
2022/04/15 12:14:53;;;;;;;16.53;13.33;;;11.10;99.90;;;;;;4895972;29;20236;-59
2022/04/15 12:17:23;;;;;;;16.77;12.77;;;11.20;99.90;;;;;;4897540;29;20602;-59
2022/04/15 12:19:51;;;;;;;16.90;13.00;;;11.30;99.90;;;;;;4899831;29;20712;-59
2022/04/15 12:22:20;;;;;;;16.93;12.27;;;11.40;99.90;;;;;;4895377;29;20240;-59
2022/04/15 12:24:48;;;;;;;15.83;12.37;;;11.40;99.90;;;;;;4895349;29;20287;-59
2022/04/15 12:27:17;;;;;;;16.73;12.83;;;11.50;99.90;;;;;;4892644;29;20266;-59
2022/04/15 12:29:47;;;;;;;15.30;12.00;;;11.60;99.90;;;;;;4896104;29;20440;-58
2022/04/15 12:32:19;;;;;;;15.67;12.77;;;11.60;99.90;;;;;;4892321;29;20254;-59
2022/04/15 12:34:48;;;;;;;16.40;12.23;;;11.60;99.90;;;;;;4895238;29;20708;-58
2022/04/15 12:37:36;;;;;;;17.30;12.23;;;11.70;99.90;;;;;;4892536;29;20324;-59
2022/04/15 12:40:07;;;;;;;18.37;13.03;;;11.70;99.90;;;;;;4896983;29;20247;-59
2022/04/15 12:42:37;;;;;;;18.03;13.00;;;11.60;99.90;;;;;;4895326;29;20248;-59
2022/04/15 12:45:11;;;;;;;17.07;12.67;;;11.60;99.90;;;;;;4897277;29;20300;-59
2022/04/15 12:47:40;;;;;;;15.17;12.17;;;11.50;99.90;;;;;;4897204;29;20274;-59
2022/04/15 12:50:20;;;;;;;15.40;12.43;;;11.50;99.90;;;;;;4895064;29;20251;-58
2022/04/15 12:52:50;;;;;;;16.17;12.70;;;11.50;99.90;;;;;;4895184;29;20314;-59